Time;durP1;ratioP1;P1;durP2;ratioP2;P2;SDS_P1;SDS_P2;PMS_P1;PMS_P2;Temp;Humidity;BMP_temperature;BMP_pressure;BME280_temperature;BME280_humidity;BME280_pressure;Samples;Min_cycle;Max_cycle;Signal;HPM_P1;HPM_P2
2022/03/23 00:00:06;;;;;;;38.10;35.13;;;6.10;69.40;;;;;;5095677;28;20657;-72
2022/03/23 00:02:34;;;;;;;37.30;34.25;;;6.00;69.20;;;;;;5095979;28;20251;-72
2022/03/23 00:05:01;;;;;;;38.65;35.60;;;6.00;68.90;;;;;;5095467;28;20229;-72
2022/03/23 00:07:29;;;;;;;37.35;34.30;;;6.00;68.80;;;;;;5095578;28;20207;-72
2022/03/23 00:09:56;;;;;;;37.67;34.22;;;5.90;68.90;;;;;;5095366;28;20653;-72
2022/03/23 00:12:23;;;;;;;37.47;34.65;;;5.90;69.30;;;;;;5095403;28;20230;-72
2022/03/23 00:14:50;;;;;;;37.70;34.72;;;5.80;69.50;;;;;;5095484;28;20689;-72
2022/03/23 00:17:16;;;;;;;37.15;34.20;;;5.90;69.30;;;;;;5095325;28;20286;-73
2022/03/23 00:19:44;;;;;;;36.53;33.58;;;5.90;69.10;;;;;;5095000;28;20243;-73
2022/03/23 00:22:11;;;;;;;36.08;33.05;;;5.90;69.20;;;;;;5095251;28;20216;-73
2022/03/23 00:24:39;;;;;;;38.35;35.25;;;5.70;69.10;;;;;;5095045;28;20671;-73
2022/03/23 00:27:06;;;;;;;37.17;34.20;;;5.70;69.30;;;;;;5095066;28;20647;-73
2022/03/23 00:29:33;;;;;;;35.80;33.00;;;5.70;69.30;;;;;;5094951;28;20653;-73
2022/03/23 00:32:00;;;;;;;35.88;33.17;;;5.70;69.40;;;;;;5095201;28;20305;-73
2022/03/23 00:34:27;;;;;;;35.50;32.70;;;5.70;69.20;;;;;;5095071;28;20213;-73
2022/03/23 00:36:53;;;;;;;36.25;33.25;;;5.60;69.80;;;;;;5095041;28;20203;-73
2022/03/23 00:39:22;;;;;;;37.38;34.35;;;5.60;69.70;;;;;;5093564;28;20297;-73
2022/03/23 00:41:52;;;;;;;36.72;33.88;;;5.60;69.40;;;;;;5094831;28;20222;-73
2022/03/23 00:44:19;;;;;;;37.40;34.13;;;5.60;69.20;;;;;;5094756;28;20706;-72
2022/03/23 00:46:46;;;;;;;37.30;34.28;;;5.60;69.30;;;;;;5094811;28;20236;-73
2022/03/23 00:49:13;;;;;;;35.47;32.88;;;5.60;69.20;;;;;;5094503;28;20198;-73
2022/03/23 00:51:41;;;;;;;36.75;33.65;;;5.50;69.30;;;;;;5094606;28;20239;-72
2022/03/23 00:54:09;;;;;;;36.13;33.42;;;5.40;69.70;;;;;;5094512;28;20636;-73
2022/03/23 00:56:36;;;;;;;36.67;33.70;;;5.40;71.50;;;;;;5094635;28;20256;-73
2022/03/23 00:59:07;;;;;;;36.20;33.40;;;5.40;70.20;;;;;;5094349;28;20286;-72
2022/03/23 01:01:34;;;;;;;36.65;33.65;;;5.40;70.20;;;;;;5094441;28;20653;-73
2022/03/23 01:04:00;;;;;;;35.25;32.15;;;5.40;70.10;;;;;;5094528;28;20226;-73
2022/03/23 01:06:28;;;;;;;37.03;33.63;;;5.30;70.10;;;;;;5094316;28;20246;-73
2022/03/23 01:08:54;;;;;;;37.40;34.40;;;5.30;70.30;;;;;;5094284;28;20626;-72
2022/03/23 01:11:21;;;;;;;35.63;32.83;;;5.30;70.10;;;;;;5093980;28;20196;-73
2022/03/23 01:13:48;;;;;;;35.10;32.20;;;5.30;70.10;;;;;;5094382;28;20200;-73
2022/03/23 01:16:17;;;;;;;35.65;32.72;;;5.30;70.20;;;;;;5094239;28;20286;-73
2022/03/23 01:18:44;;;;;;;35.95;33.20;;;5.20;70.40;;;;;;5093921;28;20208;-72
2022/03/23 01:21:13;;;;;;;34.65;31.73;;;5.20;70.40;;;;;;5093989;28;20277;-73
2022/03/23 01:23:40;;;;;;;35.90;32.85;;;5.20;70.10;;;;;;5094003;28;20223;-72
2022/03/23 01:26:07;;;;;;;34.15;31.55;;;5.20;70.00;;;;;;5093960;28;20287;-72
2022/03/23 01:28:35;;;;;;;36.08;33.20;;;5.10;70.30;;;;;;5094052;28;20201;-72
2022/03/23 01:31:01;;;;;;;34.85;32.22;;;5.10;71.20;;;;;;5093702;28;20196;-72
2022/03/23 01:33:30;;;;;;;35.25;32.53;;;5.00;70.90;;;;;;5093744;28;20322;-73
2022/03/23 01:35:57;;;;;;;36.88;33.60;;;5.00;70.50;;;;;;5093906;28;20194;-72
2022/03/23 01:38:23;;;;;;;35.97;33.17;;;5.00;70.30;;;;;;5093779;28;20293;-72
2022/03/23 01:40:50;;;;;;;35.30;32.70;;;5.00;70.00;;;;;;5093492;28;20677;-72
2022/03/23 01:43:17;;;;;;;34.78;32.17;;;5.00;70.20;;;;;;5093923;28;20586;-72
2022/03/23 01:45:44;;;;;;;34.53;31.88;;;5.00;70.10;;;;;;5093701;28;20215;-72
2022/03/23 01:48:11;;;;;;;35.80;33.15;;;4.90;70.50;;;;;;5093535;28;20282;-72
2022/03/23 01:50:40;;;;;;;35.53;32.85;;;4.90;70.30;;;;;;5093223;28;20279;-72
2022/03/23 01:53:07;;;;;;;35.95;32.97;;;4.90;70.20;;;;;;5093421;28;20220;-73
2022/03/23 01:55:35;;;;;;;35.50;32.50;;;4.90;70.10;;;;;;5093477;28;20202;-72
2022/03/23 01:58:02;;;;;;;35.80;33.10;;;4.90;70.00;;;;;;5093365;28;20689;-72
2022/03/23 02:00:29;;;;;;;34.67;32.10;;;4.80;70.30;;;;;;5092904;28;20202;-73
2022/03/23 02:02:57;;;;;;;35.85;32.90;;;4.80;70.90;;;;;;5093325;28;20220;-72
2022/03/23 02:05:25;;;;;;;34.67;32.08;;;4.70;71.00;;;;;;5093214;28;20623;-73
2022/03/23 02:07:56;;;;;;;34.60;32.00;;;4.70;71.00;;;;;;5093259;28;20192;-73
2022/03/23 02:10:23;;;;;;;34.13;31.63;;;4.70;70.80;;;;;;5093098;28;20572;-73
2022/03/23 02:12:50;;;;;;;35.95;33.28;;;4.70;70.80;;;;;;5092980;28;20211;-72
2022/03/23 02:15:18;;;;;;;35.42;32.65;;;4.60;71.00;;;;;;5093081;28;20195;-73
2022/03/23 02:17:46;;;;;;;36.17;33.42;;;4.60;71.20;;;;;;5093021;28;20661;-73
2022/03/23 02:20:14;;;;;;;36.95;33.88;;;4.60;71.20;;;;;;5092794;28;20210;-72
2022/03/23 02:22:42;;;;;;;35.92;33.15;;;4.50;71.40;;;;;;5092964;28;20219;-72
2022/03/23 02:25:10;;;;;;;35.65;32.85;;;4.50;71.10;;;;;;5092832;28;20306;-72
2022/03/23 02:27:38;;;;;;;35.28;32.60;;;4.50;71.30;;;;;;5092904;28;20191;-72
2022/03/23 02:30:06;;;;;;;35.05;32.55;;;4.50;71.30;;;;;;5092677;28;20449;-72
2022/03/23 02:32:33;;;;;;;36.65;33.67;;;4.50;71.40;;;;;;5092851;28;20298;-73
2022/03/23 02:35:01;;;;;;;33.67;31.10;;;4.40;71.50;;;;;;5092860;28;20196;-72
2022/03/23 02:37:28;;;;;;;37.45;34.13;;;4.50;71.10;;;;;;5092787;28;20225;-72
2022/03/23 02:39:56;;;;;;;36.83;33.75;;;4.40;73.50;;;;;;5092567;28;20196;-73
2022/03/23 02:42:23;;;;;;;36.40;33.60;;;4.40;71.90;;;;;;5092703;28;20276;-72
2022/03/23 02:44:50;;;;;;;34.97;32.22;;;4.40;71.50;;;;;;5092752;28;20306;-72
2022/03/23 02:47:17;;;;;;;36.00;32.95;;;4.40;70.90;;;;;;5092645;28;20191;-72
2022/03/23 02:49:44;;;;;;;35.15;32.35;;;4.40;70.80;;;;;;5092347;28;20197;-73
2022/03/23 02:52:11;;;;;;;34.70;31.95;;;4.40;71.50;;;;;;5092553;28;20225;-73
2022/03/23 03:03:33;;;;;;;35.30;32.65;;;4.40;70.60;;;;;;5096680;28;20332;-72
2022/03/23 03:06:03;;;;;;;35.33;32.47;;;4.20;71.30;;;;;;5096690;28;20219;-73
2022/03/23 03:08:48;;;;;;;34.40;31.88;;;4.10;71.60;;;;;;5096675;28;20282;-73
2022/03/23 03:11:16;;;;;;;34.65;31.98;;;4.20;71.50;;;;;;5096430;28;20195;-73
2022/03/23 03:13:48;;;;;;;34.78;32.08;;;4.20;71.40;;;;;;5096388;28;20242;-73
2022/03/23 03:16:15;;;;;;;35.63;32.60;;;4.20;71.40;;;;;;5096548;28;20563;-73
2022/03/23 03:18:42;;;;;;;37.70;34.50;;;4.10;71.50;;;;;;5096354;28;20211;-73
2022/03/23 03:21:11;;;;;;;35.47;32.63;;;4.00;72.00;;;;;;5096296;28;20303;-73
2022/03/23 03:23:39;;;;;;;35.35;32.53;;;4.00;72.60;;;;;;5096372;28;20268;-73
2022/03/23 03:26:06;;;;;;;35.25;32.55;;;3.90;72.80;;;;;;5096226;28;20222;-73
2022/03/23 03:28:34;;;;;;;36.15;33.05;;;4.00;72.40;;;;;;5096272;28;20241;-72
2022/03/23 03:31:02;;;;;;;35.58;32.67;;;4.00;72.30;;;;;;5096111;28;20200;-73
2022/03/23 03:33:29;;;;;;;35.25;32.15;;;4.00;72.00;;;;;;5096220;28;20211;-72
2022/03/23 03:35:57;;;;;;;34.72;32.13;;;3.90;72.40;;;;;;5096160;28;20265;-72
2022/03/23 03:38:24;;;;;;;35.65;32.85;;;3.70;73.00;;;;;;5096050;28;20234;-72
2022/03/23 03:40:50;;;;;;;35.33;32.75;;;3.70;73.10;;;;;;5095942;28;20206;-72
2022/03/23 03:43:17;;;;;;;35.10;32.45;;;3.70;73.30;;;;;;5096050;28;20223;-72
2022/03/23 03:45:45;;;;;;;36.05;33.28;;;3.60;73.70;;;;;;5095950;28;20580;-72
2022/03/23 03:48:14;;;;;;;37.30;34.17;;;3.70;73.30;;;;;;5095927;28;20253;-72
2022/03/23 03:50:42;;;;;;;36.22;33.30;;;3.70;73.50;;;;;;5095821;28;20208;-72
2022/03/23 03:53:09;;;;;;;35.40;32.60;;;3.60;73.70;;;;;;5095614;28;20221;-73
2022/03/23 03:55:36;;;;;;;36.55;33.67;;;3.60;73.80;;;;;;5095922;28;20286;-72
2022/03/23 03:58:03;;;;;;;35.53;32.55;;;3.60;73.90;;;;;;5095722;28;20660;-72
2022/03/23 04:00:31;;;;;;;37.35;34.50;;;3.60;73.80;;;;;;5095121;28;20695;-72
2022/03/23 04:02:58;;;;;;;35.67;32.35;;;3.60;73.90;;;;;;5095579;28;20219;-73
2022/03/23 04:05:28;;;;;;;37.05;33.78;;;3.60;74.00;;;;;;5095466;28;20257;-72
2022/03/23 04:07:55;;;;;;;34.85;32.22;;;3.50;74.10;;;;;;5095527;28;20197;-73
2022/03/23 04:10:22;;;;;;;38.13;34.83;;;3.60;74.10;;;;;;5095294;28;20202;-72
2022/03/23 04:12:48;;;;;;;35.45;32.55;;;3.60;73.90;;;;;;5095452;28;20216;-72
2022/03/23 04:15:15;;;;;;;36.35;33.55;;;3.60;74.00;;;;;;5095444;28;20652;-72
2022/03/23 04:17:43;;;;;;;38.13;35.22;;;3.50;74.20;;;;;;5095509;28;20195;-72
2022/03/23 04:20:11;;;;;;;38.13;34.63;;;3.50;74.40;;;;;;5095297;28;20202;-72
2022/03/23 04:22:40;;;;;;;36.53;33.63;;;3.50;74.40;;;;;;5095554;28;20223;-72
2022/03/23 04:25:08;;;;;;;36.55;33.65;;;3.50;74.40;;;;;;5095453;28;20218;-72
2022/03/23 04:27:44;;;;;;;37.40;34.50;;;3.50;74.40;;;;;;5095429;28;20199;-72
2022/03/23 04:30:13;;;;;;;37.35;34.33;;;3.40;74.70;;;;;;5095305;28;20202;-72
2022/03/23 04:32:39;;;;;;;38.30;35.13;;;3.40;74.90;;;;;;5095045;28;20576;-72
2022/03/23 04:35:07;;;;;;;36.45;33.35;;;3.40;74.60;;;;;;5095383;28;20202;-72
2022/03/23 04:37:34;;;;;;;36.47;33.63;;;3.40;74.50;;;;;;5095058;28;20202;-72
2022/03/23 04:40:04;;;;;;;36.50;33.70;;;3.40;74.60;;;;;;5094777;28;20297;-72
2022/03/23 04:42:30;;;;;;;37.90;34.80;;;3.40;74.80;;;;;;5094843;28;20692;-72
2022/03/23 04:44:57;;;;;;;37.63;34.42;;;3.30;75.00;;;;;;5094844;28;20555;-72
2022/03/23 04:47:24;;;;;;;36.55;33.63;;;3.30;75.20;;;;;;5095088;28;20280;-72
2022/03/23 04:49:51;;;;;;;36.65;33.55;;;3.30;75.20;;;;;;5094690;28;20202;-72
2022/03/23 04:52:18;;;;;;;37.70;34.70;;;3.30;75.20;;;;;;5094692;28;20225;-72
2022/03/23 04:54:45;;;;;;;38.80;35.70;;;3.30;75.20;;;;;;5094394;28;20218;-72
2022/03/23 04:57:13;;;;;;;39.53;36.13;;;3.30;75.30;;;;;;5094702;28;20234;-72
2022/03/23 04:59:40;;;;;;;38.45;35.50;;;3.30;75.50;;;;;;5094276;28;20206;-72
2022/03/23 05:02:07;;;;;;;37.25;34.28;;;3.30;75.90;;;;;;5094371;28;20302;-72
2022/03/23 05:04:34;;;;;;;41.15;37.65;;;3.20;75.90;;;;;;5094366;28;20556;-72
2022/03/23 05:07:01;;;;;;;39.20;36.00;;;3.20;76.20;;;;;;5094415;28;20330;-72
2022/03/23 05:09:28;;;;;;;39.40;36.35;;;3.20;76.20;;;;;;5094196;28;20560;-72
2022/03/23 05:11:55;;;;;;;41.28;38.03;;;3.30;76.30;;;;;;5094451;28;20261;-72
2022/03/23 05:14:23;;;;;;;41.83;38.45;;;3.30;78.30;;;;;;5094217;28;20201;-72
2022/03/23 05:16:50;;;;;;;39.88;36.30;;;3.30;76.60;;;;;;5094166;28;20234;-72
2022/03/23 05:19:16;;;;;;;41.45;37.90;;;3.40;76.10;;;;;;5093927;28;20202;-72
2022/03/23 05:21:43;;;;;;;43.28;39.55;;;3.50;75.50;;;;;;5094152;28;20306;-72
2022/03/23 05:24:10;;;;;;;40.78;37.10;;;3.50;75.00;;;;;;5093687;28;20565;-72
2022/03/23 05:26:37;;;;;;;40.58;37.25;;;3.60;75.90;;;;;;5093990;28;20227;-72
2022/03/23 05:29:04;;;;;;;40.95;37.50;;;3.60;76.20;;;;;;5093886;28;20213;-72
2022/03/23 05:31:33;;;;;;;40.55;37.22;;;3.70;76.50;;;;;;5093865;28;20282;-73
2022/03/23 05:33:59;;;;;;;38.95;35.45;;;3.70;75.10;;;;;;5094173;28;20195;-73
2022/03/23 05:36:26;;;;;;;42.35;38.65;;;3.80;74.50;;;;;;5093907;28;20232;-73
2022/03/23 05:38:53;;;;;;;42.08;38.25;;;3.90;73.70;;;;;;5093753;28;20660;-73
2022/03/23 05:41:20;;;;;;;44.20;40.20;;;3.90;75.00;;;;;;5093603;28;20225;-72
2022/03/23 05:43:47;;;;;;;42.50;38.50;;;4.00;74.80;;;;;;5093712;28;20224;-72
2022/03/23 05:46:14;;;;;;;43.22;38.70;;;4.10;75.60;;;;;;5093629;28;20313;-72
2022/03/23 05:48:43;;;;;;;40.58;37.22;;;4.10;74.40;;;;;;5093581;28;20228;-73
2022/03/23 05:51:10;;;;;;;40.88;37.13;;;4.20;73.80;;;;;;5093322;28;20225;-72
2022/03/23 05:53:37;;;;;;;39.97;36.55;;;4.30;73.10;;;;;;5093463;28;20237;-72
2022/03/23 05:56:06;;;;;;;41.03;37.50;;;4.30;72.60;;;;;;5093557;28;20199;-72
2022/03/23 05:58:34;;;;;;;40.58;37.17;;;4.30;72.70;;;;;;5093344;28;20198;-73
2022/03/23 06:01:02;;;;;;;42.08;38.63;;;4.30;72.60;;;;;;5093314;28;20197;-72
2022/03/23 06:03:29;;;;;;;39.78;36.85;;;4.30;72.40;;;;;;5093499;28;20301;-72
2022/03/23 06:05:57;;;;;;;41.95;38.20;;;4.30;72.20;;;;;;5093236;28;20229;-72
2022/03/23 06:08:24;;;;;;;40.78;37.47;;;4.40;72.10;;;;;;5093193;28;20283;-72
2022/03/23 06:10:51;;;;;;;43.70;40.10;;;4.40;72.20;;;;;;5093098;28;20196;-73
2022/03/23 06:13:17;;;;;;;42.45;38.63;;;4.40;72.30;;;;;;5093152;28;20246;-73
2022/03/23 06:15:46;;;;;;;42.00;38.10;;;4.50;72.00;;;;;;5093080;28;20200;-73
2022/03/23 06:18:13;;;;;;;39.70;36.20;;;4.50;72.00;;;;;;5092922;28;20234;-72
2022/03/23 06:20:40;;;;;;;43.00;39.40;;;4.60;71.80;;;;;;5093029;28;20206;-73
2022/03/23 06:23:08;;;;;;;41.80;38.33;;;4.60;71.80;;;;;;5092897;28;20215;-72
2022/03/23 06:25:36;;;;;;;40.95;37.38;;;4.60;71.90;;;;;;5093048;28;20318;-73
2022/03/23 06:28:03;;;;;;;42.40;38.70;;;4.60;71.90;;;;;;5092968;28;20577;-72
2022/03/23 06:30:30;;;;;;;41.65;38.25;;;4.80;71.70;;;;;;5092768;28;20569;-73
2022/03/23 06:32:57;;;;;;;42.92;39.20;;;4.90;71.40;;;;;;5092846;28;20225;-73
2022/03/23 06:35:26;;;;;;;40.13;36.83;;;5.00;71.20;;;;;;5092320;28;20652;-72
2022/03/23 06:37:52;;;;;;;41.03;37.55;;;5.10;71.00;;;;;;5092302;28;20671;-72
2022/03/23 06:40:21;;;;;;;43.88;39.90;;;5.10;70.70;;;;;;5092541;28;20675;-72
2022/03/23 06:42:48;;;;;;;41.47;37.90;;;5.20;70.30;;;;;;5092832;28;20223;-73
2022/03/23 06:45:15;;;;;;;42.88;39.05;;;5.30;70.20;;;;;;5092709;28;20195;-73
2022/03/23 06:47:41;;;;;;;42.72;38.83;;;5.40;70.00;;;;;;5092656;28;20211;-73
2022/03/23 06:50:09;;;;;;;41.22;37.72;;;5.40;70.10;;;;;;5092426;28;20206;-72
2022/03/23 06:52:36;;;;;;;41.75;38.20;;;5.50;69.80;;;;;;5092749;28;20720;-72
2022/03/23 06:55:03;;;;;;;41.30;37.90;;;5.70;69.60;;;;;;5092351;28;20286;-72
2022/03/23 06:57:31;;;;;;;40.97;37.55;;;5.80;69.00;;;;;;5092588;28;20699;-72
2022/03/23 06:59:58;;;;;;;41.67;38.45;;;5.90;68.70;;;;;;5092220;28;20202;-72
2022/03/23 07:02:25;;;;;;;41.67;38.05;;;6.00;68.50;;;;;;5092538;28;20211;-72
2022/03/23 07:04:52;;;;;;;44.17;39.80;;;6.10;68.20;;;;;;5092490;28;20206;-73
2022/03/23 07:07:20;;;;;;;42.42;38.83;;;6.20;67.90;;;;;;5092481;28;20594;-73
2022/03/23 07:09:46;;;;;;;42.60;38.63;;;6.30;67.80;;;;;;5092327;28;20289;-72
2022/03/23 07:12:13;;;;;;;43.70;39.65;;;6.40;67.70;;;;;;5092492;28;20261;-73
2022/03/23 07:14:42;;;;;;;42.03;38.63;;;6.50;67.30;;;;;;5092544;28;20282;-73
2022/03/23 07:17:09;;;;;;;41.83;37.90;;;6.60;67.10;;;;;;5092382;28;20283;-73
2022/03/23 07:19:36;;;;;;;42.03;38.53;;;6.60;67.00;;;;;;5092050;28;20290;-72
2022/03/23 07:22:03;;;;;;;42.25;38.40;;;6.80;66.60;;;;;;5092357;28;20300;-73
2022/03/23 07:24:30;;;;;;;42.65;38.85;;;6.90;66.50;;;;;;5092457;28;20287;-73
2022/03/23 07:26:59;;;;;;;44.15;39.97;;;7.00;66.60;;;;;;5092336;28;20303;-73
2022/03/23 07:29:26;;;;;;;41.38;37.47;;;7.10;66.80;;;;;;5092137;28;20226;-73
2022/03/23 07:31:54;;;;;;;44.47;40.92;;;7.30;65.90;;;;;;5092337;28;20225;-73
2022/03/23 07:34:21;;;;;;;41.55;38.00;;;7.40;65.20;;;;;;5092282;28;20278;-73
2022/03/23 07:36:48;;;;;;;43.60;39.70;;;7.60;64.50;;;;;;5092271;28;20231;-72
2022/03/23 07:39:20;;;;;;;44.17;40.42;;;7.70;64.20;;;;;;5092052;28;20264;-73
2022/03/23 07:41:50;;;;;;;43.70;39.65;;;7.80;63.80;;;;;;5092385;28;20219;-72
2022/03/23 07:44:18;;;;;;;46.50;42.38;;;7.90;63.40;;;;;;5092103;28;20200;-73
2022/03/23 07:46:45;;;;;;;43.08;39.05;;;8.00;63.20;;;;;;5092019;28;20221;-73
2022/03/23 07:49:14;;;;;;;42.60;39.00;;;8.20;62.80;;;;;;5095640;28;20203;-72
2022/03/23 07:51:41;;;;;;;44.85;40.80;;;8.20;62.50;;;;;;5095815;28;20562;-73
2022/03/23 07:54:08;;;;;;;44.08;40.05;;;8.30;62.40;;;;;;5095862;28;20207;-73
2022/03/23 07:56:35;;;;;;;47.00;42.83;;;8.50;62.10;;;;;;5095917;28;20656;-73
2022/03/23 07:59:02;;;;;;;45.67;41.30;;;8.60;61.60;;;;;;5095463;28;20651;-73
2022/03/23 08:01:29;;;;;;;46.75;42.53;;;8.70;61.50;;;;;;5095907;28;20278;-73
2022/03/23 08:03:56;;;;;;;49.10;44.58;;;8.70;61.10;;;;;;5095755;28;20191;-72
2022/03/23 08:06:25;;;;;;;45.88;41.55;;;8.90;61.00;;;;;;5095530;28;20222;-73
2022/03/23 08:08:52;;;;;;;48.35;44.35;;;9.00;60.80;;;;;;5095592;28;20199;-73
2022/03/23 08:11:19;;;;;;;45.50;41.50;;;9.00;60.20;;;;;;5095455;28;20199;-73
2022/03/23 08:13:46;;;;;;;48.33;44.50;;;9.10;60.20;;;;;;5095343;28;20256;-73
2022/03/23 08:16:13;;;;;;;44.67;40.83;;;9.20;60.10;;;;;;5095490;28;20271;-73
2022/03/23 08:18:40;;;;;;;46.88;42.85;;;9.40;59.80;;;;;;5095528;28;20214;-73
2022/03/23 08:21:07;;;;;;;46.90;42.08;;;9.50;59.50;;;;;;5095163;28;20294;-73
2022/03/23 08:23:35;;;;;;;49.80;45.63;;;9.60;59.10;;;;;;5095189;28;20216;-73
2022/03/23 08:26:04;;;;;;;45.92;41.85;;;9.80;58.90;;;;;;5094888;28;20588;-73
2022/03/23 08:28:31;;;;;;;48.05;43.88;;;9.90;58.30;;;;;;5095260;28;20283;-73
2022/03/23 08:30:58;;;;;;;46.70;42.67;;;10.10;57.90;;;;;;5095011;28;20613;-73
2022/03/23 08:33:26;;;;;;;44.70;40.90;;;10.20;57.20;;;;;;5095168;28;20229;-73
2022/03/23 08:35:53;;;;;;;46.13;42.00;;;10.20;56.30;;;;;;5095080;28;20206;-73
2022/03/23 08:38:20;;;;;;;45.38;41.30;;;10.30;55.90;;;;;;5094986;28;20204;-72
2022/03/23 08:40:48;;;;;;;45.50;40.80;;;10.50;55.90;;;;;;5095028;28;20205;-73
2022/03/23 08:43:15;;;;;;;46.00;42.00;;;10.60;55.80;;;;;;5095042;28;20565;-73
2022/03/23 08:45:42;;;;;;;45.40;41.00;;;10.80;55.50;;;;;;5094878;28;20204;-73
2022/03/23 08:48:10;;;;;;;46.73;43.13;;;10.90;54.70;;;;;;5094833;28;20515;-72
2022/03/23 08:50:37;;;;;;;46.30;42.40;;;11.00;54.30;;;;;;5095075;28;20450;-73
2022/03/23 08:53:04;;;;;;;49.93;45.63;;;11.20;54.10;;;;;;5095824;28;20472;-73
2022/03/23 08:55:32;;;;;;;46.90;42.13;;;11.20;53.80;;;;;;5094683;28;21005;-73
2022/03/23 08:58:00;;;;;;;45.97;41.63;;;11.40;53.70;;;;;;5094861;28;20868;-73
2022/03/23 09:00:27;;;;;;;45.13;40.93;;;11.50;53.20;;;;;;5093515;28;20821;-72
2022/03/23 09:02:55;;;;;;;52.33;43.47;;;11.60;52.60;;;;;;5094568;28;20479;-72
2022/03/23 09:05:22;;;;;;;46.87;42.07;;;11.60;52.60;;;;;;5094600;28;20546;-72
2022/03/23 09:07:49;;;;;;;48.83;44.30;;;11.70;52.20;;;;;;5094516;28;20520;-72
2022/03/23 09:10:18;;;;;;;49.27;44.63;;;11.90;51.70;;;;;;5094366;28;20542;-73
2022/03/23 09:12:45;;;;;;;46.23;42.10;;;12.00;51.50;;;;;;5094246;28;20481;-72
2022/03/23 09:15:15;;;;;;;47.30;42.80;;;12.10;51.30;;;;;;5094386;28;20533;-73
2022/03/23 09:17:43;;;;;;;47.30;42.40;;;12.30;50.40;;;;;;5094425;28;20540;-73
2022/03/23 09:20:12;;;;;;;45.03;41.10;;;12.30;49.80;;;;;;5093854;28;20838;-72
2022/03/23 09:22:40;;;;;;;45.90;42.10;;;12.40;49.40;;;;;;5094313;28;20487;-72
2022/03/23 09:25:10;;;;;;;45.53;41.70;;;12.40;49.20;;;;;;5094151;28;20515;-73
2022/03/23 09:27:38;;;;;;;47.17;43.00;;;12.50;49.40;;;;;;5094066;28;20478;-73
2022/03/23 09:30:07;;;;;;;45.00;41.30;;;12.70;49.40;;;;;;5093858;28;20812;-72
2022/03/23 09:32:35;;;;;;;46.20;42.30;;;12.80;48.60;;;;;;5093936;28;20472;-73
2022/03/23 09:35:02;;;;;;;44.43;40.87;;;12.90;48.30;;;;;;5093941;28;20878;-73
2022/03/23 09:40:16;;;;;;;47.83;43.43;;;13.10;47.10;;;;;;5093760;28;20934;-73
2022/03/23 09:42:44;;;;;;;44.20;40.27;;;13.20;46.80;;;;;;5093752;28;20475;-73
2022/03/23 09:45:18;;;;;;;43.33;39.60;;;13.30;46.40;;;;;;5094158;28;20445;-73
2022/03/23 09:47:46;;;;;;;44.50;41.10;;;13.40;46.20;;;;;;5093649;28;20481;-73
2022/03/23 09:50:13;;;;;;;46.10;41.90;;;13.40;46.50;;;;;;5093565;28;20460;-73
2022/03/23 09:52:40;;;;;;;45.90;42.40;;;13.50;46.40;;;;;;5093496;28;21021;-73
2022/03/23 09:55:08;;;;;;;45.90;42.07;;;13.50;46.30;;;;;;5093257;28;20473;-73
2022/03/23 09:57:34;;;;;;;46.47;42.30;;;13.70;45.60;;;;;;5093567;28;20446;-73
2022/03/23 10:00:01;;;;;;;45.20;41.20;;;13.70;45.10;;;;;;5093266;28;20485;-72
2022/03/23 10:03:10;;;;;;;46.77;42.77;;;13.80;45.50;;;;;;5093520;28;20543;-73
2022/03/23 10:06:25;;;;;;;45.60;41.77;;;14.00;45.80;;;;;;5072890;28;20445;-73
2022/03/23 10:09:21;;;;;;;45.63;41.93;;;14.10;46.10;;;;;;5045769;28;20524;-73
2022/03/23 10:12:24;;;;;;;44.97;41.30;;;14.40;45.20;;;;;;5093176;28;20476;-73
2022/03/23 10:15:59;;;;;;;42.60;39.00;;;14.30;44.50;;;;;;5070172;28;20939;-73
2022/03/23 10:18:52;;;;;;;40.43;37.13;;;14.20;41.10;;;;;;5092961;28;20575;-73
2022/03/23 10:21:20;;;;;;;42.97;39.70;;;14.30;41.10;;;;;;5078186;28;20541;-73
2022/03/23 10:24:25;;;;;;;38.70;36.10;;;14.50;41.40;;;;;;5093153;28;20477;-73
2022/03/23 10:26:51;;;;;;;39.77;36.53;;;14.60;38.00;;;;;;5093023;28;20576;-73
2022/03/23 10:29:23;;;;;;;41.13;38.03;;;14.70;38.60;;;;;;5092722;28;20540;-73
2022/03/23 10:32:00;;;;;;;40.07;37.23;;;14.70;38.70;;;;;;5092928;28;20481;-73
2022/03/23 10:34:48;;;;;;;40.07;37.03;;;14.80;39.10;;;;;;5092961;28;20463;-73
2022/03/23 10:37:23;;;;;;;40.27;37.30;;;14.90;38.30;;;;;;5092970;28;20529;-73
2022/03/23 10:39:50;;;;;;;39.87;36.67;;;15.00;38.50;;;;;;5092750;28;20463;-73
2022/03/23 10:42:19;;;;;;;39.83;36.67;;;15.10;38.30;;;;;;5092891;28;20484;-73
2022/03/23 10:44:46;;;;;;;40.43;37.20;;;15.10;38.00;;;;;;5092762;28;20576;-73
2022/03/23 10:47:27;;;;;;;40.97;37.77;;;15.20;38.00;;;;;;5092700;28;20632;-73
2022/03/23 10:49:56;;;;;;;40.93;37.83;;;15.30;37.30;;;;;;5092356;28;20533;-73
2022/03/23 10:52:27;;;;;;;40.90;37.67;;;15.50;37.90;;;;;;5092584;28;20512;-73
2022/03/23 10:54:56;;;;;;;38.60;35.80;;;15.50;37.60;;;;;;5092503;28;20465;-73
2022/03/23 10:57:51;;;;;;;41.50;38.50;;;15.60;37.00;;;;;;5092571;28;20472;-73
2022/03/23 11:00:32;;;;;;;37.90;34.63;;;15.60;36.80;;;;;;5079081;28;20536;-73
2022/03/23 11:03:00;;;;;;;38.90;36.17;;;15.70;36.20;;;;;;5092414;28;20470;-73
2022/03/23 11:05:32;;;;;;;38.87;36.00;;;15.80;35.60;;;;;;5092502;28;20456;-73
2022/03/23 11:08:08;;;;;;;38.90;35.40;;;16.00;35.50;;;;;;5092488;28;20569;-73
2022/03/23 11:16:08;;;;;;;36.67;33.77;;;16.10;33.70;;;;;;5092593;28;20429;-73
2022/03/23 11:18:35;;;;;;;36.20;33.60;;;16.20;33.10;;;;;;5092241;28;20457;-73
2022/03/23 11:21:04;;;;;;;35.70;33.10;;;16.20;32.90;;;;;;5092232;28;20453;-73
2022/03/23 11:23:33;;;;;;;38.23;35.17;;;16.20;33.00;;;;;;5095063;28;20974;-73
2022/03/23 11:26:02;;;;;;;36.13;33.73;;;16.30;32.80;;;;;;5096584;28;20453;-73
2022/03/23 11:28:31;;;;;;;36.27;33.67;;;16.10;32.30;;;;;;5096225;28;20560;-73
2022/03/23 11:31:00;;;;;;;38.40;35.80;;;16.10;32.30;;;;;;5096332;28;20901;-73
2022/03/23 11:33:28;;;;;;;38.47;35.67;;;16.20;32.40;;;;;;5096175;28;20472;-73
2022/03/23 11:35:55;;;;;;;36.60;33.90;;;16.40;32.20;;;;;;5096519;28;20453;-73
2022/03/23 11:38:26;;;;;;;36.23;33.70;;;16.50;31.90;;;;;;5096217;28;20445;-73
2022/03/23 11:40:54;;;;;;;35.43;32.53;;;16.60;31.60;;;;;;5096072;28;20915;-73
2022/03/23 11:43:22;;;;;;;36.10;32.67;;;16.70;30.80;;;;;;5096050;28;20564;-73
2022/03/23 11:45:51;;;;;;;33.33;31.13;;;16.80;30.10;;;;;;5095963;28;20965;-73
2022/03/23 11:48:25;;;;;;;35.97;33.27;;;16.70;30.70;;;;;;5095834;28;21002;-73
2022/03/23 11:51:20;;;;;;;35.63;33.03;;;16.80;31.20;;;;;;5095682;28;20454;-73
2022/03/23 11:54:03;;;;;;;33.60;31.20;;;16.90;30.00;;;;;;5090319;28;20480;-73
2022/03/23 11:56:41;;;;;;;36.67;33.97;;;16.90;29.60;;;;;;5095841;28;20446;-73
2022/03/23 11:59:23;;;;;;;36.30;33.50;;;17.00;30.30;;;;;;5095490;28;20441;-73
2022/03/23 12:01:51;;;;;;;36.53;33.50;;;17.10;30.30;;;;;;5093824;28;20480;-73
2022/03/23 12:04:20;;;;;;;35.33;32.63;;;17.20;30.30;;;;;;5095766;28;20524;-73
2022/03/23 12:06:47;;;;;;;36.03;33.07;;;17.20;30.20;;;;;;5095500;28;20529;-73
2022/03/23 12:09:36;;;;;;;34.40;31.70;;;17.30;30.20;;;;;;5095389;28;20544;-74
2022/03/23 12:12:05;;;;;;;37.10;34.53;;;17.40;30.20;;;;;;5095593;28;20508;-73
2022/03/23 12:14:34;;;;;;;36.07;33.60;;;17.60;30.10;;;;;;5095390;28;20958;-73
2022/03/23 12:17:11;;;;;;;36.83;34.13;;;17.60;30.20;;;;;;5095344;28;20499;-74
2022/03/23 12:20:07;;;;;;;37.30;34.50;;;17.60;29.80;;;;;;5095061;28;20461;-74
2022/03/23 12:23:00;;;;;;;35.40;32.80;;;17.70;29.70;;;;;;5095466;28;20828;-74
2022/03/23 12:25:37;;;;;;;34.57;31.87;;;17.70;28.60;;;;;;5088516;28;20526;-73
2022/03/23 12:28:18;;;;;;;34.77;32.30;;;17.70;27.70;;;;;;5095284;28;20608;-73
2022/03/23 12:31:02;;;;;;;36.10;33.70;;;17.60;29.40;;;;;;5095137;28;20461;-74
2022/03/23 12:33:30;;;;;;;37.43;34.97;;;17.70;28.90;;;;;;5094456;28;20469;-74
2022/03/23 12:36:01;;;;;;;37.17;34.37;;;17.70;29.20;;;;;;5094561;28;20872;-73
2022/03/23 12:38:29;;;;;;;36.53;33.60;;;17.60;29.50;;;;;;5095096;28;20859;-73
2022/03/23 12:41:03;;;;;;;34.50;32.10;;;17.90;29.50;;;;;;5094920;28;20503;-73
2022/03/23 12:43:38;;;;;;;35.53;33.17;;;18.00;28.30;;;;;;5095063;28;20474;-74
2022/03/23 12:46:17;;;;;;;37.73;34.73;;;18.10;27.80;;;;;;5094882;28;20453;-73
2022/03/23 13:00:25;;;;;;;38.80;35.57;;;18.00;29.50;;;;;;5094438;28;20533;-73
2022/03/23 13:03:30;;;;;;;36.57;34.07;;;18.10;29.50;;;;;;5094690;28;20833;-73
2022/03/23 13:06:08;;;;;;;37.60;34.80;;;18.20;28.30;;;;;;5094676;28;20549;-73
2022/03/23 13:08:48;;;;;;;36.53;33.90;;;18.30;28.60;;;;;;5094475;28;20483;-74
2022/03/23 13:11:20;;;;;;;37.00;34.33;;;18.30;28.90;;;;;;5094301;28;20533;-73
2022/03/23 13:13:51;;;;;;;36.17;33.70;;;18.40;29.10;;;;;;5094268;28;20474;-73